Time;durP1;ratioP1;P1;durP2;ratioP2;P2;SDS_P1;SDS_P2;PMS_P1;PMS_P2;Temp;Humidity;BMP_temperature;BMP_pressure;BME280_temperature;BME280_humidity;BME280_pressure;Samples;Min_cycle;Max_cycle;Signal;HPM_P1;HPM_P2
2023/06/19 00:00:30;;;;;;;9.80;9.00;;;16.40;71.00;;;;;;4992934;28;20538;-54
2023/06/19 00:02:56;;;;;;;10.23;9.13;;;16.40;63.60;;;;;;4991381;28;20454;-54
2023/06/19 00:05:24;;;;;;;9.77;8.87;;;16.40;69.80;;;;;;4994541;28;20891;-53
2023/06/19 00:07:51;;;;;;;9.73;8.77;;;16.40;69.70;;;;;;4994579;28;20538;-53
2023/06/19 00:10:18;;;;;;;10.30;9.20;;;16.40;69.90;;;;;;4989226;28;20557;-54
2023/06/19 00:12:46;;;;;;;13.70;9.03;;;16.40;70.10;;;;;;4994334;28;20553;-54
2023/06/19 00:15:12;;;;;;;14.53;9.10;;;16.50;69.00;;;;;;4993398;28;20576;-54
2023/06/19 00:17:39;;;;;;;10.43;9.43;;;16.60;74.90;;;;;;4993387;28;20535;-54
2023/06/19 00:20:09;;;;;;;9.63;8.37;;;16.60;76.70;;;;;;4994285;28;20469;-54
2023/06/19 00:22:36;;;;;;;10.13;9.00;;;16.60;79.00;;;;;;4993672;28;20472;-54
2023/06/19 00:25:04;;;;;;;9.83;8.53;;;16.60;76.70;;;;;;4990374;28;20568;-54
2023/06/19 00:27:30;;;;;;;10.30;9.40;;;16.70;79.20;;;;;;4992111;28;20480;-53
2023/06/19 00:30:01;;;;;;;9.50;8.60;;;16.70;79.70;;;;;;4993284;28;20548;-53
2023/06/19 00:32:28;;;;;;;9.27;8.50;;;16.70;80.90;;;;;;4993242;28;21025;-54
2023/06/19 00:34:55;;;;;;;10.17;9.17;;;16.70;79.40;;;;;;4992917;28;20526;-54
2023/06/19 00:37:21;;;;;;;11.60;8.90;;;16.70;80.70;;;;;;4991182;28;20520;-53
2023/06/19 00:39:49;;;;;;;9.80;9.03;;;16.70;80.90;;;;;;4992935;28;20555;-53
2023/06/19 00:42:16;;;;;;;11.40;9.40;;;16.70;82.90;;;;;;4993851;28;20492;-54
2023/06/19 00:44:43;;;;;;;10.00;9.20;;;16.70;82.50;;;;;;4993523;28;20469;-54
2023/06/19 00:47:09;;;;;;;9.30;8.50;;;16.70;83.10;;;;;;4991136;28;20485;-54
2023/06/19 00:49:36;;;;;;;10.10;9.20;;;16.70;83.00;;;;;;4993488;28;20514;-54
2023/06/19 00:52:03;;;;;;;9.27;8.47;;;16.70;82.50;;;;;;4993091;28;20519;-54
2023/06/19 00:54:31;;;;;;;10.00;9.20;;;16.70;87.00;;;;;;4993398;28;20516;-53
2023/06/19 00:57:01;;;;;;;12.60;9.00;;;16.80;87.50;;;;;;4992022;28;20551;-54
2023/06/19 00:59:28;;;;;;;10.23;9.23;;;16.80;89.10;;;;;;4991727;28;20966;-54
2023/06/19 01:01:55;;;;;;;10.67;9.77;;;16.80;92.40;;;;;;4994178;28;20444;-53
2023/06/19 01:04:21;;;;;;;9.90;9.00;;;16.90;94.00;;;;;;4993316;28;20484;-54
2023/06/19 01:06:58;;;;;;;9.80;8.90;;;17.00;93.70;;;;;;4994188;28;20551;-53
2023/06/19 01:09:29;;;;;;;14.13;9.50;;;17.10;96.10;;;;;;4994316;28;20457;-54
2023/06/19 01:12:02;;;;;;;9.43;8.43;;;17.10;99.40;;;;;;4994405;28;21010;-55
2023/06/19 01:14:35;;;;;;;9.10;8.40;;;17.10;98.70;;;;;;4988647;28;20580;-54
2023/06/19 01:17:02;;;;;;;10.07;9.13;;;17.10;94.90;;;;;;4990519;28;20515;-53
2023/06/19 01:19:29;;;;;;;12.37;9.10;;;17.20;95.60;;;;;;4993278;28;20537;-53
2023/06/19 01:21:56;;;;;;;11.63;9.90;;;17.10;96.40;;;;;;4993628;28;20488;-53
2023/06/19 01:24:23;;;;;;;10.03;8.80;;;17.20;93.10;;;;;;4993577;28;20540;-53
2023/06/19 01:26:50;;;;;;;13.17;9.73;;;17.10;93.40;;;;;;4988236;28;20547;-54
2023/06/19 01:29:18;;;;;;;9.97;9.10;;;17.10;99.90;;;;;;4987884;28;20557;-54
2023/06/19 01:31:51;;;;;;;10.80;9.90;;;17.10;99.90;;;;;;4993422;28;20476;-54
2023/06/19 01:34:19;;;;;;;9.70;8.80;;;17.10;99.90;;;;;;4990410;28;20500;-54
2023/06/19 01:36:47;;;;;;;9.67;8.83;;;17.10;99.90;;;;;;4993111;28;21025;-53
2023/06/19 01:39:16;;;;;;;10.20;9.30;;;17.10;99.90;;;;;;4993249;28;20488;-54
2023/06/19 01:41:44;;;;;;;10.20;8.73;;;17.10;99.90;;;;;;4992184;28;20970;-54
2023/06/19 01:44:11;;;;;;;10.53;9.30;;;17.20;99.90;;;;;;4990510;28;20572;-54
2023/06/19 01:46:38;;;;;;;9.67;8.87;;;17.20;99.90;;;;;;4992510;28;20544;-54
2023/06/19 01:49:07;;;;;;;20.07;9.73;;;17.20;99.90;;;;;;4992318;28;20488;-54
2023/06/19 01:51:34;;;;;;;10.20;9.30;;;17.20;99.90;;;;;;4992410;28;20449;-53
2023/06/19 01:54:00;;;;;;;11.20;10.20;;;17.20;99.90;;;;;;4992834;28;20548;-54
2023/06/19 01:56:28;;;;;;;11.60;10.60;;;17.20;99.90;;;;;;4992357;28;20579;-55
2023/06/19 01:58:56;;;;;;;16.93;12.17;;;17.20;99.90;;;;;;4991439;28;20556;-50
2023/06/19 02:01:23;;;;;;;10.03;9.33;;;17.20;99.90;;;;;;4992363;28;20535;-50
2023/06/19 02:03:49;;;;;;;11.40;10.30;;;17.20;99.90;;;;;;4991637;28;20550;-51
2023/06/19 02:06:16;;;;;;;10.30;9.50;;;17.20;98.50;;;;;;4991548;28;20945;-51
2023/06/19 02:08:42;;;;;;;10.33;9.33;;;17.20;94.00;;;;;;4984099;28;21053;-51
2023/06/19 02:11:09;;;;;;;11.20;10.27;;;17.20;92.70;;;;;;4991019;28;20993;-51
2023/06/19 02:13:35;;;;;;;11.20;10.20;;;17.10;92.90;;;;;;4990231;28;21009;-51
2023/06/19 02:16:04;;;;;;;11.03;10.03;;;17.10;91.20;;;;;;4988960;28;20601;-51
2023/06/19 02:18:30;;;;;;;10.50;9.60;;;17.00;86.00;;;;;;4990617;28;20567;-51
2023/06/19 02:20:57;;;;;;;10.60;9.70;;;17.00;81.70;;;;;;4990752;28;20488;-51
2023/06/19 02:23:23;;;;;;;17.10;9.50;;;17.00;78.40;;;;;;4991090;28;20604;-52
2023/06/19 02:25:50;;;;;;;13.20;10.87;;;16.90;76.80;;;;;;4991234;28;20552;-50
2023/06/19 02:28:16;;;;;;;11.23;10.23;;;16.90;78.10;;;;;;4991612;28;20578;-52
2023/06/19 02:30:43;;;;;;;10.77;9.73;;;16.90;74.70;;;;;;4991321;28;20465;-50
2023/06/19 02:33:11;;;;;;;10.87;9.87;;;16.90;74.80;;;;;;4991792;28;20477;-51
2023/06/19 02:35:37;;;;;;;11.07;9.83;;;16.90;80.40;;;;;;4991813;28;20932;-51
2023/06/19 02:38:04;;;;;;;10.33;9.33;;;16.90;84.10;;;;;;4993240;28;20579;-51
2023/06/19 02:40:31;;;;;;;12.97;10.10;;;17.00;80.60;;;;;;4991366;28;20962;-50
2023/06/19 02:42:58;;;;;;;11.60;10.57;;;17.00;77.60;;;;;;4992128;28;21246;-50
2023/06/19 02:45:24;;;;;;;11.30;10.33;;;17.00;76.90;;;;;;4992127;28;20527;-52
2023/06/19 02:47:51;;;;;;;9.37;8.57;;;17.00;77.70;;;;;;4990158;28;20623;-52
2023/06/19 02:50:19;;;;;;;10.77;9.77;;;17.00;79.90;;;;;;4990750;28;20494;-50
2023/06/19 02:52:46;;;;;;;10.80;9.80;;;17.00;81.10;;;;;;4994664;28;20513;-51
2023/06/19 02:55:12;;;;;;;10.70;9.77;;;17.00;84.80;;;;;;4991164;28;21092;-51
2023/06/19 02:57:39;;;;;;;12.37;11.13;;;17.00;89.60;;;;;;4990965;28;20524;-52
2023/06/19 03:00:09;;;;;;;11.83;10.50;;;17.00;95.60;;;;;;4990924;28;20460;-51
2023/06/19 03:02:35;;;;;;;11.50;10.33;;;17.10;99.90;;;;;;4991581;28;20468;-50
2023/06/19 03:05:03;;;;;;;11.03;10.13;;;17.20;99.90;;;;;;4989109;28;20907;-51
2023/06/19 03:07:31;;;;;;;11.97;10.87;;;17.20;99.90;;;;;;4983827;28;20488;-50
2023/06/19 03:09:57;;;;;;;10.93;10.03;;;17.30;99.90;;;;;;4991464;28;20532;-51
2023/06/19 03:12:24;;;;;;;11.13;10.23;;;17.20;99.90;;;;;;4990825;28;20495;-52
2023/06/19 03:14:50;;;;;;;11.73;10.63;;;17.30;99.90;;;;;;4991524;28;20503;-52
2023/06/19 03:17:17;;;;;;;11.20;10.30;;;17.30;99.90;;;;;;4991237;28;20954;-52
2023/06/19 03:19:43;;;;;;;12.13;11.13;;;17.30;99.90;;;;;;4987535;28;20544;-50
2023/06/19 03:22:10;;;;;;;11.77;10.77;;;17.40;99.90;;;;;;4988938;28;20547;-54
2023/06/19 03:24:37;;;;;;;11.10;10.00;;;17.40;99.90;;;;;;4990372;28;20552;-51
2023/06/19 03:27:05;;;;;;;12.23;10.90;;;17.50;99.90;;;;;;4988680;28;20516;-51
2023/06/19 03:29:31;;;;;;;11.63;10.53;;;17.50;99.90;;;;;;4990746;28;20543;-50
2023/06/19 03:31:58;;;;;;;12.10;11.10;;;17.50;99.90;;;;;;4988402;28;20553;-51
2023/06/19 03:34:24;;;;;;;11.83;10.73;;;17.50;99.90;;;;;;4985609;28;20555;-51
2023/06/19 03:36:51;;;;;;;12.53;11.23;;;17.60;99.90;;;;;;4988752;28;20497;-51
2023/06/19 03:39:17;;;;;;;21.73;12.07;;;17.70;99.90;;;;;;4989335;28;20584;-51
2023/06/19 03:41:45;;;;;;;12.97;11.30;;;17.70;99.90;;;;;;4990267;28;20907;-51
2023/06/19 03:44:12;;;;;;;13.53;12.27;;;17.80;99.90;;;;;;4986867;28;20918;-51
2023/06/19 03:46:38;;;;;;;12.60;11.40;;;17.80;99.90;;;;;;4990566;28;20576;-51
2023/06/19 03:49:06;;;;;;;12.50;11.30;;;17.80;99.90;;;;;;4991360;28;20543;-52
2023/06/19 03:51:33;;;;;;;12.60;11.40;;;17.80;99.90;;;;;;4990587;28;20507;-51
2023/06/19 03:53:59;;;;;;;11.37;10.17;;;17.80;99.90;;;;;;4988995;28;20547;-51
2023/06/19 03:56:26;;;;;;;11.40;10.40;;;17.80;99.90;;;;;;4990259;28;20484;-51
2023/06/19 03:58:54;;;;;;;12.20;11.10;;;17.80;99.90;;;;;;4989204;28;20895;-52
2023/06/19 04:01:20;;;;;;;11.73;10.80;;;17.80;99.90;;;;;;4988311;28;20564;-50
2023/06/19 04:03:47;;;;;;;15.63;11.07;;;17.80;99.90;;;;;;4990765;28;20515;-52
2023/06/19 04:06:13;;;;;;;13.60;11.60;;;17.80;99.90;;;;;;4990953;28;20436;-51
2023/06/19 04:08:40;;;;;;;12.63;11.53;;;17.80;99.90;;;;;;4990988;28;20533;-51
2023/06/19 04:11:06;;;;;;;12.73;11.57;;;17.80;99.90;;;;;;4991058;28;20833;-51
2023/06/19 04:13:33;;;;;;;13.00;12.00;;;17.80;99.90;;;;;;4993513;28;20536;-51
2023/06/19 04:16:01;;;;;;;12.90;11.23;;;17.80;99.90;;;;;;4993801;28;20899;-53
2023/06/19 04:18:28;;;;;;;13.13;11.87;;;17.80;99.90;;;;;;4993146;28;20526;-50
2023/06/19 04:20:54;;;;;;;13.70;11.30;;;17.90;99.90;;;;;;4994319;28;20475;-54
2023/06/19 04:23:21;;;;;;;12.73;11.53;;;17.80;99.90;;;;;;4993685;28;20501;-53
2023/06/19 04:25:48;;;;;;;12.30;10.60;;;17.90;99.90;;;;;;4988910;28;21022;-54
2023/06/19 04:28:14;;;;;;;12.73;11.40;;;17.90;99.90;;;;;;4985387;28;20516;-53
2023/06/19 04:30:41;;;;;;;11.17;10.17;;;17.90;99.90;;;;;;4993633;28;21024;-54
2023/06/19 04:33:09;;;;;;;11.83;10.83;;;17.90;99.90;;;;;;4992757;28;20495;-54
2023/06/19 04:35:39;;;;;;;12.47;11.27;;;17.90;99.90;;;;;;4989383;28;20588;-55
2023/06/19 04:38:06;;;;;;;12.07;11.00;;;18.00;99.90;;;;;;4993821;28;20484;-54
2023/06/19 04:40:33;;;;;;;12.03;11.03;;;18.00;99.90;;;;;;4993083;28;20548;-53
2023/06/19 04:42:59;;;;;;;11.80;10.87;;;18.00;99.90;;;;;;4990699;28;20476;-55
2023/06/19 04:45:26;;;;;;;12.37;11.20;;;18.00;99.90;;;;;;4990453;28;20548;-55
2023/06/19 04:47:53;;;;;;;12.57;11.37;;;18.00;1.40;;;;;;4986957;28;20579;-54
2023/06/19 04:50:20;;;;;;;12.70;11.40;;;18.10;99.90;;;;;;4990188;28;20504;-55
2023/06/19 04:52:50;;;;;;;12.60;11.40;;;18.10;99.90;;;;;;4993039;28;20552;-54
2023/06/19 04:55:16;;;;;;;14.30;10.37;;;18.10;99.90;;;;;;4989458;28;20487;-54
2023/06/19 04:57:43;;;;;;;18.13;11.10;;;18.10;99.90;;;;;;4989624;28;20568;-54
2023/06/19 05:00:10;;;;;;;12.40;11.40;;;18.20;99.90;;;;;;4993309;28;20572;-54
2023/06/19 05:02:37;;;;;;;12.87;11.77;;;18.20;99.90;;;;;;4992681;28;21001;-55
2023/06/19 05:05:04;;;;;;;11.93;10.93;;;18.20;99.90;;;;;;4987754;28;20982;-54
2023/06/19 05:07:32;;;;;;;14.37;11.87;;;18.20;99.90;;;;;;4990667;28;20504;-54
2023/06/19 05:09:59;;;;;;;12.67;11.40;;;18.20;99.90;;;;;;4993237;28;21014;-54
2023/06/19 05:12:26;;;;;;;14.30;10.60;;;18.20;99.90;;;;;;4991968;28;20500;-54
2023/06/19 05:14:52;;;;;;;13.27;11.87;;;18.20;99.90;;;;;;4986902;28;20552;-55
2023/06/19 05:17:19;;;;;;;14.20;12.80;;;18.20;99.90;;;;;;4992808;28;20580;-54
2023/06/19 05:19:45;;;;;;;12.70;11.20;;;18.30;99.90;;;;;;4992918;28;20461;-54
2023/06/19 05:22:12;;;;;;;13.30;11.90;;;18.30;99.90;;;;;;4989419;28;20909;-54
2023/06/19 05:24:40;;;;;;;18.90;11.40;;;18.30;99.90;;;;;;4992945;28;20449;-54
2023/06/19 05:27:07;;;;;;;13.60;11.40;;;18.30;99.90;;;;;;4992467;28;20481;-54
2023/06/19 05:29:33;;;;;;;16.20;12.07;;;18.30;99.90;;;;;;4991800;28;20545;-54
2023/06/19 05:32:00;;;;;;;12.77;11.43;;;18.30;99.90;;;;;;4992934;28;21034;-55
2023/06/19 05:34:26;;;;;;;12.17;11.17;;;18.30;99.90;;;;;;4989136;28;20551;-54
2023/06/19 05:36:53;;;;;;;14.10;12.33;;;18.30;99.90;;;;;;4988201;28;20573;-54
2023/06/19 05:39:19;;;;;;;18.40;12.83;;;18.30;99.90;;;;;;4986468;28;20548;-54
2023/06/19 05:41:47;;;;;;;12.93;11.73;;;18.30;99.90;;;;;;4992116;28;20942;-54
2023/06/19 05:44:15;;;;;;;12.27;11.27;;;18.30;99.90;;;;;;4992410;28;20488;-54
2023/06/19 05:46:42;;;;;;;13.03;11.70;;;18.30;99.90;;;;;;4991262;28;20543;-54
2023/06/19 05:49:09;;;;;;;11.40;10.50;;;18.40;99.90;;;;;;4987988;28;20485;-54
2023/06/19 05:51:35;;;;;;;13.20;12.00;;;18.30;99.90;;;;;;4988351;28;20563;-54
2023/06/19 05:54:03;;;;;;;12.30;11.10;;;18.40;99.90;;;;;;4989218;28;20499;-53
2023/06/19 05:56:30;;;;;;;13.03;11.43;;;18.40;99.90;;;;;;4991471;28;20918;-54
2023/06/19 05:58:58;;;;;;;11.90;10.83;;;18.40;99.90;;;;;;4994229;28;20504;-53
2023/06/19 06:01:24;;;;;;;13.37;12.17;;;18.40;99.90;;;;;;4987164;28;20497;-54
2023/06/19 06:03:51;;;;;;;14.00;11.50;;;18.40;99.90;;;;;;4987094;28;20469;-55
2023/06/19 06:06:17;;;;;;;13.23;11.93;;;18.50;99.90;;;;;;4988733;28;20555;-53
2023/06/19 06:08:44;;;;;;;13.47;12.13;;;18.50;99.90;;;;;;4989609;28;20492;-53
2023/06/19 06:11:10;;;;;;;13.03;11.63;;;18.50;99.90;;;;;;4991535;28;20460;-54
2023/06/19 06:13:37;;;;;;;12.90;11.70;;;18.60;99.90;;;;;;4989320;28;20551;-53
2023/06/19 06:16:05;;;;;;;12.87;11.70;;;18.60;99.90;;;;;;4990349;28;20552;-53
2023/06/19 06:18:31;;;;;;;13.17;12.03;;;18.60;99.90;;;;;;4985937;28;20530;-54
2023/06/19 06:20:59;;;;;;;14.13;12.10;;;18.60;99.90;;;;;;4990968;28;21034;-54
2023/06/19 06:23:25;;;;;;;13.97;12.70;;;18.70;99.90;;;;;;4991560;28;20543;-53
2023/06/19 06:25:52;;;;;;;13.37;12.13;;;18.70;99.90;;;;;;4990884;28;20464;-54
2023/06/19 06:28:18;;;;;;;17.17;13.77;;;18.70;99.90;;;;;;4988353;28;20512;-54
2023/06/19 06:30:45;;;;;;;12.87;11.70;;;18.70;99.90;;;;;;4991451;28;20507;-53
2023/06/19 06:33:13;;;;;;;13.90;12.43;;;18.70;99.90;;;;;;4989683;28;20552;-54
2023/06/19 06:35:39;;;;;;;16.20;12.33;;;18.70;99.90;;;;;;4983561;28;21401;-53
2023/06/19 06:38:06;;;;;;;11.57;10.53;;;18.80;99.90;;;;;;4990917;28;20583;-53
2023/06/19 06:40:33;;;;;;;16.00;12.47;;;18.80;99.90;;;;;;4989651;28;20510;-54
2023/06/19 06:42:59;;;;;;;13.17;12.10;;;18.80;99.90;;;;;;4987472;28;20656;-54
2023/06/19 06:45:26;;;;;;;13.13;11.40;;;18.90;99.90;;;;;;4987092;28;20841;-53
2023/06/19 06:47:53;;;;;;;14.83;11.90;;;18.90;99.90;;;;;;4986852;28;20852;-54
2023/06/19 06:50:20;;;;;;;14.43;12.37;;;19.00;99.90;;;;;;4986700;28;20559;-53
2023/06/19 06:52:47;;;;;;;13.63;12.43;;;19.00;99.90;;;;;;4990397;28;20493;-54
2023/06/19 06:55:13;;;;;;;14.27;11.63;;;19.00;99.90;;;;;;4991272;28;21017;-53
2023/06/19 06:57:40;;;;;;;13.90;12.70;;;19.10;99.90;;;;;;4987723;28;20578;-54
2023/06/19 07:00:09;;;;;;;12.83;11.63;;;19.10;99.90;;;;;;4988493;28;20567;-54
2023/06/19 07:02:36;;;;;;;12.40;11.40;;;19.20;99.90;;;;;;5001137;28;20496;-54
2023/06/19 07:05:02;;;;;;;13.80;12.70;;;19.30;99.90;;;;;;4996965;28;20566;-54
2023/06/19 07:07:30;;;;;;;13.00;11.80;;;19.30;99.90;;;;;;4992269;28;20508;-53
2023/06/19 07:09:57;;;;;;;13.90;12.67;;;19.30;99.90;;;;;;4992978;28;20488;-52
2023/06/19 07:12:23;;;;;;;14.67;13.20;;;19.40;99.90;;;;;;4992680;28;21010;-55
2023/06/19 07:14:50;;;;;;;13.77;12.00;;;19.40;99.90;;;;;;4995327;28;20551;-54
2023/06/19 07:17:16;;;;;;;13.83;12.50;;;19.50;99.90;;;;;;4990572;28;20587;-53
2023/06/19 07:19:43;;;;;;;16.63;12.63;;;19.50;99.90;;;;;;4980379;28;20878;-54
2023/06/19 07:22:09;;;;;;;13.20;11.70;;;19.60;99.90;;;;;;4988221;28;20556;-53
2023/06/19 07:24:37;;;;;;;13.43;12.27;;;19.60;99.90;;;;;;4993361;28;20560;-54
2023/06/19 07:27:04;;;;;;;12.80;11.50;;;19.70;99.90;;;;;;4989312;28;20515;-53
2023/06/19 07:29:32;;;;;;;13.33;11.63;;;19.70;99.90;;;;;;4980169;28;20555;-54
2023/06/19 07:31:58;;;;;;;18.40;11.70;;;19.70;99.90;;;;;;4984875;28;20465;-54
2023/06/19 07:34:25;;;;;;;14.10;12.70;;;19.70;99.90;;;;;;4988474;28;20552;-54
2023/06/19 07:36:51;;;;;;;12.53;11.13;;;19.80;99.90;;;;;;4986648;28;20583;-54
2023/06/19 07:39:18;;;;;;;13.60;12.20;;;19.80;99.90;;;;;;4989619;28;20596;-54
2023/06/19 07:41:46;;;;;;;13.93;12.60;;;19.90;99.90;;;;;;4996187;28;20462;-54
2023/06/19 07:44:13;;;;;;;14.23;12.80;;;19.90;99.90;;;;;;4990597;28;20548;-54
2023/06/19 07:46:40;;;;;;;15.90;12.20;;;20.00;99.90;;;;;;4981713;28;20482;-53
2023/06/19 07:49:06;;;;;;;14.50;12.83;;;20.00;99.90;;;;;;4992787;28;20829;-54
2023/06/19 07:51:33;;;;;;;21.80;11.87;;;20.10;99.90;;;;;;4987489;28;20531;-54
2023/06/19 07:53:59;;;;;;;15.17;12.30;;;20.10;99.90;;;;;;4988073;28;20555;-54
2023/06/19 07:56:28;;;;;;;14.10;12.60;;;20.20;99.90;;;;;;4991885;28;20468;-54
2023/06/19 07:58:56;;;;;;;13.13;11.60;;;20.30;20.00;;;;;;4997834;28;20497;-54
2023/06/19 08:01:23;;;;;;;13.73;12.50;;;20.30;20.00;;;;;;4991870;28;20560;-55
2023/06/19 08:03:49;;;;;;;12.90;11.77;;;20.40;77.50;;;;;;4986928;28;21069;-54
2023/06/19 08:06:16;;;;;;;13.20;11.80;;;20.40;99.90;;;;;;4994490;28;20497;-54
2023/06/19 08:08:42;;;;;;;16.90;12.37;;;20.40;91.90;;;;;;4991921;28;20543;-53
2023/06/19 08:11:09;;;;;;;15.27;11.77;;;20.40;21.10;;;;;;4993308;28;20460;-54
2023/06/19 08:13:35;;;;;;;15.93;11.40;;;20.40;20.20;;;;;;4991286;28;21185;-54
2023/06/19 08:16:04;;;;;;;14.83;11.70;;;20.40;83.10;;;;;;4985629;28;20456;-54
2023/06/19 08:18:31;;;;;;;16.60;12.30;;;20.50;99.90;;;;;;4989863;28;20562;-54
2023/06/19 08:20:57;;;;;;;14.00;12.60;;;20.50;99.90;;;;;;4986520;28;20555;-54
2023/06/19 08:23:24;;;;;;;14.47;12.77;;;20.50;99.90;;;;;;4987906;28;20553;-54
2023/06/19 08:25:51;;;;;;;12.97;11.77;;;20.60;99.90;;;;;;4983944;28;20670;-54
2023/06/19 08:28:18;;;;;;;11.90;10.80;;;20.60;99.90;;;;;;4987525;28;20480;-53
2023/06/19 08:30:45;;;;;;;13.50;11.30;;;20.70;99.90;;;;;;4987670;28;20544;-50
2023/06/19 08:33:14;;;;;;;18.33;12.27;;;20.70;99.90;;;;;;4983121;28;20547;-50
2023/06/19 08:35:40;;;;;;;14.47;11.70;;;20.70;84.60;;;;;;4984906;28;20535;-50
2023/06/19 08:38:07;;;;;;;16.97;12.13;;;20.80;79.70;;;;;;4992566;28;21018;-51
2023/06/19 08:40:34;;;;;;;12.77;11.57;;;20.80;81.70;;;;;;4983659;28;20552;-50
2023/06/19 08:43:00;;;;;;;16.77;12.10;;;20.90;24.50;;;;;;4986672;28;20564;-50
2023/06/19 08:45:28;;;;;;;17.13;13.13;;;20.90;35.30;;;;;;4985635;28;20548;-50
2023/06/19 08:47:59;;;;;;;12.90;11.70;;;20.90;30.00;;;;;;4984860;28;20588;-50
2023/06/19 08:50:27;;;;;;;18.23;12.37;;;20.90;32.20;;;;;;4990698;28;20963;-50
2023/06/19 08:52:55;;;;;;;12.60;11.50;;;20.90;41.60;;;;;;4988214;28;20555;-51
2023/06/19 08:55:21;;;;;;;14.20;12.90;;;20.90;37.20;;;;;;4997245;28;20497;-52
2023/06/19 08:57:49;;;;;;;12.57;11.37;;;20.90;36.50;;;;;;4988454;28;20595;-52
2023/06/19 09:00:25;;;;;;;13.70;12.37;;;20.90;36.30;;;;;;4989958;28;20516;-52
2023/06/19 09:02:51;;;;;;;13.40;12.10;;;20.90;33.30;;;;;;4994562;28;20464;-51
2023/06/19 09:05:20;;;;;;;12.37;11.17;;;20.90;24.40;;;;;;4990588;28;20548;-50
2023/06/19 09:07:56;;;;;;;19.73;12.10;;;20.80;27.00;;;;;;4996020;28;20899;-51
2023/06/19 09:10:23;;;;;;;13.10;11.90;;;20.80;22.80;;;;;;4988917;28;20616;-51
2023/06/19 09:13:01;;;;;;;13.23;11.93;;;20.80;26.20;;;;;;4987421;28;20468;-52
2023/06/19 09:15:32;;;;;;;13.23;12.10;;;20.80;99.90;;;;;;4988818;28;20519;-51
2023/06/19 09:18:06;;;;;;;13.60;12.17;;;20.90;99.90;;;;;;4983564;28;20929;-51
2023/06/19 09:20:34;;;;;;;25.10;12.80;;;20.90;99.90;;;;;;4992760;28;21025;-50
2023/06/19 09:23:02;;;;;;;14.43;11.93;;;20.90;99.90;;;;;;4989328;28;20465;-50
2023/06/19 09:25:29;;;;;;;12.67;11.43;;;21.00;99.90;;;;;;4990878;28;20548;-50
2023/06/19 09:27:56;;;;;;;19.83;12.13;;;21.00;99.90;;;;;;4996505;28;20541;-53
2023/06/19 09:30:23;;;;;;;13.93;12.20;;;21.00;99.90;;;;;;4994464;28;20540;-52
2023/06/19 09:32:49;;;;;;;14.57;12.70;;;21.00;99.90;;;;;;4989210;28;20544;-54
2023/06/19 09:35:17;;;;;;;14.27;12.73;;;21.10;99.90;;;;;;4989542;28;20520;-53
2023/06/19 09:37:45;;;;;;;26.00;12.57;;;21.00;99.90;;;;;;4990654;28;20503;-51
2023/06/19 09:40:14;;;;;;;18.30;13.67;;;21.10;99.90;;;;;;4991669;28;20826;-50
2023/06/19 09:42:43;;;;;;;14.03;12.73;;;21.10;99.90;;;;;;4989230;28;20457;-50
2023/06/19 09:45:12;;;;;;;14.63;13.13;;;21.10;99.90;;;;;;4988819;28;20472;-50
2023/06/19 09:47:40;;;;;;;18.93;12.17;;;21.10;99.90;;;;;;4990779;28;20508;-53
2023/06/19 09:50:08;;;;;;;13.37;12.03;;;21.20;99.90;;;;;;4989994;28;20473;-51
2023/06/19 09:52:35;;;;;;;13.93;12.63;;;21.20;99.90;;;;;;4990617;28;20465;-50
2023/06/19 09:55:04;;;;;;;22.33;12.60;;;21.20;99.90;;;;;;4992900;28;20465;-51
2023/06/19 09:57:33;;;;;;;13.30;11.97;;;21.30;99.90;;;;;;4988310;28;20873;-51
2023/06/19 10:00:09;;;;;;;14.33;13.03;;;21.40;99.90;;;;;;4989284;28;20902;-51
2023/06/19 10:02:36;;;;;;;13.47;11.70;;;21.40;99.90;;;;;;4989169;28;20525;-51
2023/06/19 10:05:03;;;;;;;13.13;11.33;;;21.40;99.90;;;;;;4991715;28;20492;-51
2023/06/19 10:07:34;;;;;;;13.93;12.50;;;21.50;99.90;;;;;;4988950;28;20479;-52
2023/06/19 10:10:04;;;;;;;15.00;12.57;;;21.40;99.90;;;;;;4983302;28;20461;-52
2023/06/19 10:12:40;;;;;;;12.80;11.20;;;21.50;99.90;;;;;;4984938;28;20457;-51
2023/06/19 10:15:15;;;;;;;12.60;11.50;;;21.50;99.90;;;;;;4991438;28;20962;-51
2023/06/19 10:17:47;;;;;;;12.83;11.53;;;21.50;99.90;;;;;;4997457;28;20574;-50
2023/06/19 10:20:31;;;;;;;13.87;12.77;;;21.50;99.90;;;;;;4985038;28;21038;-51
2023/06/19 10:23:00;;;;;;;12.90;11.73;;;21.50;99.90;;;;;;4979194;28;20476;-51
2023/06/19 10:25:30;;;;;;;13.20;11.93;;;21.60;31.70;;;;;;4990266;28;20540;-52
2023/06/19 10:27:58;;;;;;;18.90;11.60;;;21.70;31.80;;;;;;4980551;28;20567;-51
2023/06/19 10:30:25;;;;;;;12.73;11.47;;;21.90;48.00;;;;;;4989747;28;20524;-52
2023/06/19 10:32:53;;;;;;;15.10;13.60;;;22.30;66.80;;;;;;4989095;28;20468;-51
2023/06/19 10:35:21;;;;;;;17.87;13.00;;;22.70;99.90;;;;;;4989385;28;20469;-50
2023/06/19 10:37:48;;;;;;;15.10;12.70;;;22.90;99.90;;;;;;4989204;28;20488;-51
2023/06/19 10:40:16;;;;;;;14.50;12.93;;;23.10;99.90;;;;;;5001151;28;20504;-51
2023/06/19 10:42:43;;;;;;;14.43;13.00;;;23.20;99.90;;;;;;4989372;28;20560;-51
2023/06/19 10:45:13;;;;;;;16.87;12.23;;;23.40;99.90;;;;;;4988909;28;20461;-51
2023/06/19 10:47:41;;;;;;;13.40;12.20;;;23.60;99.90;;;;;;4984072;28;20535;-52
2023/06/19 10:50:11;;;;;;;13.47;12.07;;;23.60;99.90;;;;;;4990439;28;20460;-51
2023/06/19 10:52:41;;;;;;;13.60;11.67;;;23.60;99.90;;;;;;4983447;28;20465;-52
2023/06/19 10:55:08;;;;;;;13.47;12.17;;;23.50;99.90;;;;;;4986797;28;20471;-52
2023/06/19 10:57:35;;;;;;;18.47;12.60;;;23.40;99.90;;;;;;4993620;28;20555;-51
2023/06/19 11:00:05;;;;;;;14.73;13.13;;;23.40;99.90;;;;;;4993355;28;20862;-51
2023/06/19 11:02:33;;;;;;;13.63;11.90;;;23.40;99.90;;;;;;4996795;28;20498;-53
2023/06/19 11:05:00;;;;;;;13.50;12.30;;;23.30;99.90;;;;;;4989767;28;20465;-53
2023/06/19 11:07:26;;;;;;;16.93;12.27;;;23.30;99.90;;;;;;4988436;28;20516;-52
2023/06/19 11:09:53;;;;;;;14.03;12.63;;;23.30;99.90;;;;;;4989064;28;20519;-53
2023/06/19 11:12:20;;;;;;;15.77;12.77;;;23.30;99.90;;;;;;4982876;28;20917;-53
2023/06/19 11:14:48;;;;;;;14.00;12.70;;;23.30;99.90;;;;;;4981015;28;20457;-51
2023/06/19 11:17:14;;;;;;;13.33;12.00;;;23.30;99.90;;;;;;4983444;28;20539;-51
2023/06/19 11:19:44;;;;;;;13.70;12.27;;;23.30;99.90;;;;;;4993176;28;20565;-50
2023/06/19 11:22:11;;;;;;;13.83;12.20;;;23.50;99.90;;;;;;4987682;28;20468;-51
2023/06/19 11:24:37;;;;;;;14.73;13.20;;;23.50;99.90;;;;;;4993911;28;20504;-50
2023/06/19 11:27:05;;;;;;;18.63;13.07;;;23.70;99.90;;;;;;4991966;28;20516;-50
2023/06/19 11:29:32;;;;;;;13.13;12.00;;;23.80;99.90;;;;;;4991808;28;20465;-50
2023/06/19 11:32:06;;;;;;;15.00;13.60;;;24.00;24.10;;;;;;4992549;28;20558;-51
2023/06/19 11:34:36;;;;;;;14.17;12.70;;;24.30;33.20;;;;;;4989146;28;20467;-51
2023/06/19 11:37:12;;;;;;;15.37;12.53;;;24.60;44.30;;;;;;4996312;28;20503;-51
2023/06/19 11:39:39;;;;;;;13.37;12.17;;;24.60;67.70;;;;;;4988018;28;21104;-56
2023/06/19 11:42:07;;;;;;;18.03;12.83;;;24.70;58.20;;;;;;4994063;28;20542;-51
2023/06/19 11:44:33;;;;;;;21.33;13.30;;;24.60;78.10;;;;;;4993645;28;20476;-50
2023/06/19 11:47:02;;;;;;;14.17;12.80;;;24.70;77.10;;;;;;4994607;28;20583;-51
2023/06/19 11:49:32;;;;;;;15.63;12.77;;;24.80;79.50;;;;;;4997413;28;20519;-51
2023/06/19 11:51:59;;;;;;;16.87;13.33;;;25.10;94.90;;;;;;4989738;28;20468;-52
2023/06/19 11:54:26;;;;;;;17.03;12.53;;;25.60;98.20;;;;;;4992455;28;20568;-53
2023/06/19 11:56:53;;;;;;;12.87;11.67;;;25.80;99.90;;;;;;4994233;28;20913;-51
2023/06/19 11:59:19;;;;;;;13.20;12.00;;;26.00;99.90;;;;;;4993389;28;20496;-51
2023/06/19 12:01:46;;;;;;;13.30;12.00;;;26.50;99.90;;;;;;4988601;28;20547;-51
2023/06/19 12:04:13;;;;;;;13.93;11.20;;;26.50;99.90;;;;;;4992998;28;20496;-52
2023/06/19 12:06:40;;;;;;;13.70;11.07;;;26.50;99.90;;;;;;4993079;28;20559;-52
2023/06/19 12:09:06;;;;;;;10.67;9.60;;;26.70;99.90;;;;;;4988685;28;20487;-51
2023/06/19 12:11:34;;;;;;;11.87;9.63;;;26.30;99.90;;;;;;4993229;28;20555;-51
2023/06/19 12:14:01;;;;;;;11.47;10.10;;;26.70;99.90;;;;;;4994606;28;20485;-51
2023/06/19 12:16:28;;;;;;;11.67;10.53;;;26.70;99.90;;;;;;4995397;28;20660;-52
2023/06/19 12:18:56;;;;;;;15.20;9.77;;;26.90;99.90;;;;;;4988137;28;20477;-50
2023/06/19 12:21:22;;;;;;;11.57;10.37;;;27.10;99.90;;;;;;4990302;28;20559;-51
2023/06/19 12:23:49;;;;;;;11.63;10.73;;;27.00;99.90;;;;;;4989786;28;21026;-50
2023/06/19 12:26:15;;;;;;;12.00;10.97;;;26.80;99.90;;;;;;4990284;28;20496;-51
2023/06/19 12:28:43;;;;;;;13.73;10.23;;;26.80;99.90;;;;;;4985862;28;20535;-51
2023/06/19 12:31:10;;;;;;;12.37;11.07;;;26.90;99.90;;;;;;4984903;28;20544;-54